createdAt,value
2018-07-21T00:01:17.580Z,75.80
2018-07-21T00:03:47.359Z,76.60
2018-07-21T00:06:17.888Z,76.60
2018-07-21T00:08:49.317Z,77.30
2018-07-21T00:11:19.148Z,78.20
2018-07-21T00:13:49.054Z,78.80
2018-07-21T00:16:18.823Z,79.30
2018-07-21T00:18:49.076Z,79.70
2018-07-21T00:23:48.241Z,81.30
2018-07-21T00:26:18.997Z,80.30
2018-07-21T00:28:48.944Z,80.00
2018-07-21T00:31:18.767Z,81.20
2018-07-21T00:33:48.616Z,81.70
2018-07-21T00:36:19.213Z,81.30
2018-07-21T00:38:49.016Z,81.40
2018-07-21T00:43:48.052Z,81.60
2018-07-21T00:46:17.863Z,82.30
2018-07-21T00:48:48.248Z,82.10
2018-07-21T00:51:18.360Z,82.10
2018-07-21T00:53:48.177Z,82.30
2018-07-21T00:56:17.983Z,83.00
2018-07-21T00:58:47.827Z,81.90
2018-07-21T01:01:17.604Z,81.40
2018-07-21T01:03:48.655Z,82.50
2018-07-21T01:06:18.480Z,82.70
2018-07-21T01:08:48.267Z,83.10
2018-07-21T01:11:18.160Z,82.80
2018-07-21T01:13:48.513Z,82.40
2018-07-21T01:16:18.478Z,82.10
2018-07-21T01:18:48.995Z,81.80
2018-07-21T01:21:18.784Z,81.80
2018-07-21T01:23:48.577Z,82.70
2018-07-21T01:26:18.393Z,83.80
2018-07-21T01:28:48.196Z,84.50
2018-07-21T01:31:18.532Z,84.50
2018-07-21T01:33:48.391Z,84.80
2018-07-21T01:36:18.603Z,85.50
2018-07-21T01:38:48.464Z,85.50
2018-07-21T01:41:18.274Z,85.80
2018-07-21T01:43:48.730Z,86.20
2018-07-21T01:46:18.525Z,86.20
2018-07-21T01:48:48.312Z,86.40
2018-07-21T01:56:17.313Z,86.30
2018-07-21T01:58:47.146Z,86.40
2018-07-21T02:01:16.911Z,87.80
2018-07-21T02:03:48.300Z,88.00
2018-07-21T02:06:18.876Z,87.30
2018-07-21T02:08:49.404Z,87.50
2018-07-21T02:11:20.178Z,87.90
2018-07-21T02:16:20.820Z,88.70
2018-07-21T02:21:19.931Z,88.10
2018-07-21T02:23:49.839Z,88.60
2018-07-21T02:26:19.528Z,89.40
2018-07-21T02:28:49.358Z,89.70
2018-07-21T02:31:19.516Z,90.20
2018-07-21T02:33:49.343Z,90.50
2018-07-21T02:36:19.146Z,90.70
2018-07-21T02:38:48.934Z,90.90
2018-07-21T02:41:19.155Z,91.10
2018-07-21T02:43:49.553Z,90.80
2018-07-21T02:46:19.698Z,91.30
2018-07-21T02:51:19.413Z,91.60
2018-07-21T02:53:49.322Z,91.80
2018-07-21T02:56:19.096Z,92.00
2018-07-21T02:58:48.914Z,92.50
2018-07-21T03:01:18.718Z,92.80
2018-07-21T03:06:17.831Z,93.20
2018-07-21T03:08:48.420Z,93.30
2018-07-21T03:11:18.990Z,93.70
2018-07-21T03:13:48.805Z,94.20
2018-07-21T03:16:19.273Z,94.80
2018-07-21T03:18:49.705Z,95.30
2018-07-21T03:21:19.472Z,95.60
2018-07-21T03:23:49.272Z,96.00
2018-07-21T03:28:48.885Z,96.80
2018-07-21T03:31:18.825Z,96.90
2018-07-21T03:33:48.634Z,96.90
2018-07-21T03:38:48.412Z,96.80
2018-07-21T03:41:18.254Z,96.40
2018-07-21T03:43:48.165Z,96.50
2018-07-21T03:46:18.518Z,96.10
2018-07-21T03:48:48.329Z,95.80
2018-07-21T03:51:18.116Z,95.20
2018-07-21T03:56:17.688Z,95.20
2018-07-21T03:58:48.109Z,95.10
2018-07-21T04:01:18.071Z,95.30
2018-07-21T04:03:48.652Z,95.20
2018-07-21T04:08:47.872Z,95.10
2018-07-21T04:11:18.199Z,95.40
2018-07-21T04:13:48.432Z,95.50
2018-07-21T04:16:18.526Z,95.70
2018-07-21T04:18:49.188Z,95.60
2018-07-21T04:21:18.977Z,95.90
2018-07-21T04:23:48.770Z,97.00
2018-07-21T04:26:19.862Z,96.70
2018-07-21T04:28:50.164Z,97.10
2018-07-21T04:31:19.970Z,96.60
2018-07-21T04:33:49.796Z,96.80
2018-07-21T04:36:19.592Z,97.00
2018-07-21T04:38:49.408Z,97.10
2018-07-21T04:41:19.375Z,97.20
2018-07-21T04:43:49.136Z,97.30
2018-07-21T04:46:19.840Z,97.20
2018-07-21T04:48:49.629Z,97.70
2018-07-21T04:51:19.872Z,98.40
2018-07-21T04:53:49.673Z,98.50
2018-07-21T04:56:19.475Z,98.40
2018-07-21T04:58:49.240Z,98.30
2018-07-21T05:01:19.053Z,98.40
2018-07-21T05:03:49.734Z,98.50
2018-07-21T05:06:19.517Z,98.50
2018-07-21T05:08:49.349Z,98.70
2018-07-21T05:11:19.147Z,98.80
2018-07-21T05:13:48.935Z,99.00
2018-07-21T05:16:18.735Z,99.30
2018-07-21T05:18:49.136Z,99.50
2018-07-21T05:23:48.864Z,99.90
2018-07-21T05:26:18.620Z,99.90
2018-07-21T05:28:48.401Z,99.90
2018-07-21T05:31:19.413Z,99.90
2018-07-21T05:33:49.245Z,99.90
2018-07-21T05:36:19.044Z,99.90
2018-07-21T05:38:48.907Z,99.90
2018-07-21T05:41:18.827Z,99.90
2018-07-21T05:46:17.956Z,99.90
2018-07-21T05:48:47.740Z,99.90
2018-07-21T05:51:17.586Z,99.90
2018-07-21T05:53:48.045Z,99.90
2018-07-21T05:56:18.465Z,99.90
2018-07-21T05:58:48.231Z,99.90
2018-07-21T06:01:18.097Z,99.90
2018-07-21T06:03:47.909Z,99.90
2018-07-21T06:06:18.541Z,99.90
2018-07-21T06:08:48.377Z,99.90
2018-07-21T06:11:18.199Z,99.90
2018-07-21T06:13:48.757Z,99.90
2018-07-21T06:16:20.284Z,99.90
2018-07-21T06:18:50.157Z,99.90
2018-07-21T06:21:20.703Z,99.90
2018-07-21T06:23:50.513Z,99.90
2018-07-21T06:26:20.287Z,99.90
2018-07-21T06:28:50.218Z,99.90
2018-07-21T06:31:20.784Z,99.90
2018-07-21T06:33:50.593Z,99.90
2018-07-21T06:36:20.682Z,99.90
2018-07-21T06:41:19.808Z,99.90
2018-07-21T06:43:50.701Z,99.90
2018-07-21T06:46:20.460Z,99.90
2018-07-21T06:48:51.455Z,99.90
2018-07-21T06:51:22.053Z,99.90
2018-07-21T06:53:51.870Z,99.90
2018-07-21T06:56:21.648Z,99.90
2018-07-21T06:58:51.473Z,99.90
2018-07-21T07:01:21.281Z,99.90
2018-07-21T07:03:51.119Z,99.90
2018-07-21T07:06:20.928Z,99.90
2018-07-21T07:08:51.564Z,99.20
2018-07-21T07:13:50.617Z,98.60
2018-07-21T07:16:20.513Z,98.80
2018-07-21T07:18:50.305Z,98.60
2018-07-21T07:23:50.672Z,99.90
2018-07-21T07:26:20.487Z,99.90
2018-07-21T07:28:50.314Z,99.90
2018-07-21T07:31:20.774Z,99.90
2018-07-21T07:36:20.297Z,99.90
2018-07-21T07:38:50.779Z,99.90
2018-07-21T07:41:21.387Z,99.90
2018-07-21T07:43:51.209Z,99.90
2018-07-21T07:46:20.968Z,99.90
2018-07-21T07:48:51.536Z,99.60
2018-07-21T07:51:21.375Z,99.90
2018-07-21T07:53:51.168Z,99.70
2018-07-21T07:56:20.995Z,99.90
2018-07-21T07:58:50.840Z,99.60
2018-07-21T08:01:21.016Z,99.00
2018-07-21T08:03:50.800Z,98.90
2018-07-21T08:06:21.354Z,99.90
2018-07-21T08:08:51.208Z,99.40
2018-07-21T08:11:21.073Z,99.60
2018-07-21T08:13:52.031Z,99.80
2018-07-21T08:16:22.288Z,99.80
2018-07-21T08:18:52.108Z,99.70
2018-07-21T08:21:21.969Z,99.40
2018-07-21T08:23:51.792Z,99.70
2018-07-21T08:26:21.899Z,99.40
2018-07-21T08:28:51.913Z,99.70
2018-07-21T08:31:22.304Z,99.60
2018-07-21T08:33:52.224Z,99.70
2018-07-21T08:36:22.876Z,99.40
2018-07-21T08:38:52.666Z,99.50
2018-07-21T08:41:22.461Z,99.20
2018-07-21T08:43:52.288Z,99.90
2018-07-21T08:46:22.104Z,99.90
2018-07-21T08:48:51.969Z,99.90
2018-07-21T08:51:21.814Z,99.90
2018-07-21T08:53:52.209Z,99.90
2018-07-21T08:56:22.863Z,99.90
2018-07-21T08:58:52.701Z,98.50
2018-07-21T09:01:22.528Z,98.20
2018-07-21T09:03:52.399Z,98.40
2018-07-21T09:06:22.209Z,97.00
2018-07-21T09:08:52.293Z,95.80
2018-07-21T09:11:23.469Z,96.20
2018-07-21T09:13:53.712Z,95.50
2018-07-21T09:16:23.540Z,96.30
2018-07-21T09:18:54.079Z,96.50
2018-07-21T09:21:24.116Z,95.80
2018-07-21T09:23:53.998Z,96.90
2018-07-21T09:26:23.908Z,97.20
2018-07-21T09:28:54.112Z,95.70
2018-07-21T09:31:24.662Z,95.30
2018-07-21T09:33:54.675Z,96.00
2018-07-21T09:36:24.494Z,95.00
2018-07-21T09:38:54.351Z,94.60
2018-07-21T09:41:24.248Z,94.70
2018-07-21T09:43:54.162Z,94.70
2018-07-21T09:46:23.953Z,94.50
2018-07-21T09:48:53.940Z,94.10
2018-07-21T09:51:23.873Z,94.70
2018-07-21T09:53:54.056Z,94.20
2018-07-21T09:56:23.988Z,92.30
2018-07-21T09:59:00.896Z,91.80
2018-07-21T10:01:30.760Z,90.10
2018-07-21T10:04:01.338Z,88.50
2018-07-21T10:06:31.345Z,84.70
2018-07-21T10:09:01.183Z,86.20
2018-07-21T10:11:31.074Z,85.70
2018-07-21T10:14:01.068Z,86.00
2018-07-21T10:16:30.911Z,88.10
2018-07-21T10:21:31.727Z,85.50
2018-07-21T10:24:07.711Z,81.00
2018-07-21T10:26:42.687Z,75.40
2018-07-21T10:29:13.935Z,72.00
2018-07-21T10:31:44.497Z,70.30
2018-07-21T10:34:14.554Z,69.00
2018-07-21T10:36:44.444Z,65.40
2018-07-21T10:39:14.857Z,67.10
2018-07-21T10:41:44.664Z,67.00
2018-07-21T10:44:14.675Z,66.50
2018-07-21T10:46:44.604Z,64.90
2018-07-21T10:49:14.561Z,64.20
2018-07-21T10:51:45.176Z,60.00
2018-07-21T10:54:15.721Z,58.40
2018-07-21T10:56:46.152Z,58.70
2018-07-21T10:59:15.974Z,58.50
2018-07-21T11:01:46.713Z,57.90
2018-07-21T11:04:16.486Z,59.20
2018-07-21T11:06:47.964Z,59.70
2018-07-21T11:09:17.980Z,58.00
2018-07-21T11:11:48.141Z,56.90
2018-07-21T11:14:18.682Z,55.00
2018-07-21T11:16:48.550Z,54.80
2018-07-21T11:19:18.341Z,54.10
2018-07-21T11:21:48.272Z,53.80
2018-07-21T11:24:18.584Z,53.00
2018-07-21T11:26:48.488Z,53.20
2018-07-21T11:29:19.884Z,52.10
2018-07-21T11:31:49.679Z,53.20
2018-07-21T11:34:20.350Z,54.80
2018-07-21T11:36:50.173Z,56.90
2018-07-21T11:39:20.130Z,58.70
2018-07-21T11:41:50.320Z,59.10
2018-07-21T11:44:20.213Z,58.80
2018-07-21T11:49:20.772Z,62.00
2018-07-21T11:54:20.792Z,60.70
2018-07-21T11:56:54.746Z,61.70
2018-07-21T11:59:24.602Z,62.30
2018-07-21T12:01:54.453Z,61.80
2018-07-21T12:04:25.104Z,63.00
2018-07-21T12:06:55.059Z,60.70
2018-07-21T12:09:25.137Z,61.20
2018-07-21T12:11:55.368Z,62.30
2018-07-21T12:14:25.189Z,62.80
2018-07-21T12:16:55.757Z,62.40
2018-07-21T12:19:25.594Z,62.30
2018-07-21T12:21:56.246Z,65.90
2018-07-21T12:24:26.169Z,63.60
2018-07-21T12:26:57.128Z,63.50
2018-07-21T12:29:27.826Z,65.40
2018-07-21T12:31:57.648Z,65.20
2018-07-21T12:34:27.465Z,64.40
2018-07-21T12:36:58.135Z,63.30
2018-07-21T12:39:28.008Z,62.00
2018-07-21T12:41:59.113Z,60.70
2018-07-21T12:44:29.278Z,60.60
2018-07-21T12:47:00.557Z,60.90
2018-07-21T12:49:30.549Z,61.30
2018-07-21T12:52:02.313Z,60.80
2018-07-21T12:54:32.139Z,60.30
2018-07-21T12:57:02.024Z,59.10
2018-07-21T12:59:32.537Z,59.50
2018-07-21T13:04:32.524Z,60.50
2018-07-21T13:07:04.392Z,60.10
2018-07-21T13:09:35.951Z,60.20
2018-07-21T13:12:07.870Z,59.70
2018-07-21T13:14:39.072Z,60.10
2018-07-21T13:17:09.005Z,60.00
2018-07-21T13:19:38.800Z,59.70
2018-07-21T13:34:23.205Z,60.60
2018-07-21T13:36:53.793Z,59.80
2018-07-21T13:41:52.861Z,59.50
2018-07-21T13:44:22.963Z,61.00
2018-07-21T13:46:52.839Z,61.90
2018-07-21T13:49:22.712Z,62.10
2018-07-21T13:51:52.556Z,60.70
2018-07-21T13:54:22.395Z,60.90
2018-07-21T13:56:52.816Z,61.80
2018-07-21T13:59:23.255Z,63.20
2018-07-21T14:01:53.108Z,63.10
2018-07-21T14:04:22.949Z,62.30
2018-07-21T14:06:53.259Z,63.70
2018-07-21T14:09:23.898Z,64.90
2018-07-21T14:11:54.493Z,65.20
2018-07-21T14:14:25.137Z,66.40
2018-07-21T14:16:56.090Z,64.60
2018-07-21T14:21:56.173Z,66.40
2018-07-21T14:24:26.189Z,68.10
2018-07-21T14:26:56.138Z,69.10
2018-07-21T14:29:25.965Z,68.60
2018-07-21T14:31:57.160Z,71.10
2018-07-21T14:34:27.019Z,70.00
2018-07-21T14:36:56.836Z,69.40
2018-07-21T14:39:27.181Z,68.30
2018-07-21T14:41:57.695Z,68.10
2018-07-21T14:44:27.595Z,71.30
2018-07-21T14:46:57.627Z,70.50
2018-07-21T14:49:27.559Z,70.80
2018-07-21T14:51:58.182Z,68.60
2018-07-21T14:54:28.291Z,70.90
2018-07-21T14:56:58.442Z,70.60
2018-07-21T14:59:28.612Z,68.70
2018-07-21T15:01:58.606Z,69.60
2018-07-21T15:06:58.445Z,72.30
2018-07-21T15:09:28.986Z,71.50
2018-07-21T15:11:59.397Z,71.50
2018-07-21T15:14:29.787Z,72.20
2018-07-21T15:17:00.373Z,72.30
2018-07-21T15:22:00.698Z,73.00
2018-07-21T15:24:31.500Z,71.90
2018-07-21T15:27:01.433Z,73.00
2018-07-21T15:29:32.099Z,72.90
2018-07-21T15:32:02.588Z,73.50
2018-07-21T15:34:32.533Z,74.50
2018-07-21T15:37:02.502Z,76.20
2018-07-21T15:39:32.471Z,77.10
2018-07-21T15:42:03.769Z,77.50
2018-07-21T15:44:35.144Z,77.50
2018-07-21T15:47:05.170Z,79.80
2018-07-21T15:49:34.994Z,83.50
2018-07-21T15:52:04.817Z,85.70
2018-07-21T15:54:35.291Z,85.80
2018-07-21T15:57:05.372Z,85.90
2018-07-21T15:59:35.225Z,86.80
2018-07-21T16:02:05.222Z,86.70
2018-07-21T16:04:35.723Z,86.90
2018-07-21T16:07:06.086Z,87.10
2018-07-21T16:09:35.928Z,87.20
2018-07-21T16:12:06.298Z,86.40
2018-07-21T16:14:36.244Z,85.10
2018-07-21T16:17:06.091Z,85.20
2018-07-21T16:19:36.592Z,84.50
2018-07-21T16:22:06.517Z,83.60
2018-07-21T16:24:36.355Z,85.70
2018-07-21T16:27:06.349Z,83.90
2018-07-21T16:29:40.787Z,83.10
2018-07-21T16:32:13.050Z,82.80
2018-07-21T16:34:43.530Z,83.40
2018-07-21T16:37:14.083Z,87.60
2018-07-21T16:39:44.405Z,90.40
2018-07-21T16:44:44.277Z,97.10
2018-07-21T16:47:15.000Z,99.90
2018-07-21T16:49:44.858Z,99.90
2018-07-21T16:52:14.713Z,99.90
2018-07-21T16:54:44.774Z,99.90
2018-07-21T16:57:15.208Z,99.90
2018-07-21T16:59:45.637Z,99.90
2018-07-21T17:02:15.988Z,99.90
2018-07-21T17:04:46.614Z,99.90
2018-07-21T17:09:46.541Z,99.90
2018-07-21T17:12:20.140Z,99.90
2018-07-21T17:14:50.071Z,99.90
2018-07-21T17:17:20.615Z,99.90
2018-07-21T17:19:50.536Z,99.90
2018-07-21T17:22:20.965Z,99.90
2018-07-21T17:24:50.870Z,99.90
2018-07-21T17:27:20.678Z,99.90
2018-07-21T17:29:55.963Z,99.90
2018-07-21T17:32:27.250Z,99.90
2018-07-21T17:34:57.818Z,99.90
2018-07-21T17:37:28.329Z,99.90
2018-07-21T17:39:58.854Z,99.90
2018-07-21T17:42:28.741Z,99.90
2018-07-21T17:44:59.234Z,99.90
2018-07-21T17:47:29.766Z,99.90
2018-07-21T17:50:00.224Z,99.90
2018-07-21T17:52:31.031Z,99.90
2018-07-21T17:55:00.888Z,99.90
2018-07-21T17:57:31.112Z,99.90
2018-07-21T18:02:30.344Z,99.90
2018-07-21T18:05:00.332Z,99.90
2018-07-21T18:10:00.122Z,99.90
2018-07-21T18:12:29.976Z,99.90
2018-07-21T18:17:29.810Z,99.90
2018-07-21T18:19:59.681Z,99.90
2018-07-21T18:22:30.375Z,99.90
2018-07-21T18:27:30.534Z,99.90
2018-07-21T18:32:30.796Z,99.90
2018-07-21T18:35:00.675Z,99.90
2018-07-21T18:37:30.575Z,99.90
2018-07-21T18:40:00.437Z,99.90
2018-07-21T18:42:30.273Z,99.90
2018-07-21T18:45:00.616Z,99.90
2018-07-21T18:47:30.680Z,99.90
2018-07-21T18:50:00.559Z,99.90
2018-07-21T18:52:31.383Z,99.90
2018-07-21T18:55:01.550Z,99.90
2018-07-21T18:57:31.577Z,99.90
2018-07-21T19:00:02.327Z,99.90
2018-07-21T19:02:33.102Z,99.90
2018-07-21T19:05:03.261Z,99.90
2018-07-21T19:07:33.150Z,99.90
2018-07-21T19:10:03.760Z,99.90
2018-07-21T19:12:39.684Z,99.90
2018-07-21T19:15:14.484Z,99.90
2018-07-21T19:17:44.365Z,99.90
2018-07-21T19:20:20.531Z,99.90
2018-07-21T19:25:25.206Z,99.90
2018-07-21T19:27:55.256Z,99.90
2018-07-21T19:30:25.063Z,99.90
2018-07-21T19:32:58.093Z,99.90
2018-07-21T19:35:29.664Z,99.90
2018-07-21T19:37:59.838Z,99.90
2018-07-21T19:40:30.491Z,99.90
2018-07-21T19:43:01.065Z,99.90
2018-07-21T19:45:30.932Z,99.90
2018-07-21T19:48:00.764Z,99.90
2018-07-21T19:50:31.221Z,99.90
2018-07-21T19:53:01.181Z,99.90
2018-07-21T19:55:31.850Z,99.90
2018-07-21T19:58:02.932Z,99.90
2018-07-21T20:00:32.787Z,99.90
2018-07-21T20:03:02.754Z,99.90
2018-07-21T20:05:32.757Z,99.90
2018-07-21T20:08:03.262Z,99.90
2018-07-21T20:10:33.508Z,99.90
2018-07-21T20:13:04.406Z,99.90
2018-07-21T20:15:34.284Z,99.90
2018-07-21T20:18:04.933Z,99.90
2018-07-21T20:20:34.875Z,99.90
2018-07-21T20:25:34.674Z,99.90
2018-07-21T20:28:04.613Z,99.90
2018-07-21T20:30:34.447Z,99.90
2018-07-21T20:33:04.310Z,99.90
2018-07-21T20:35:34.165Z,99.90
2018-07-21T20:38:04.759Z,99.90
2018-07-21T20:40:34.672Z,99.90
2018-07-21T20:43:05.966Z,99.90
2018-07-21T20:45:36.670Z,99.90
2018-07-21T20:48:06.761Z,99.90
2018-07-21T20:50:38.458Z,99.90
2018-07-21T20:53:10.690Z,99.90
2018-07-21T20:55:40.662Z,99.90
2018-07-21T20:58:10.501Z,99.90
2018-07-21T21:00:40.389Z,99.90
2018-07-21T21:03:10.961Z,99.90
2018-07-21T21:05:40.976Z,99.90
2018-07-21T21:08:10.852Z,99.90
2018-07-21T21:10:40.776Z,99.90
2018-07-21T21:13:10.588Z,99.90
2018-07-21T21:15:40.444Z,99.90
2018-07-21T21:18:10.419Z,99.90
2018-07-21T21:20:40.283Z,99.90
2018-07-21T21:23:10.174Z,99.90
2018-07-21T21:25:40.213Z,99.90
2018-07-21T21:28:10.795Z,99.90
2018-07-21T21:30:40.674Z,99.90
2018-07-21T21:33:11.820Z,99.90
2018-07-21T21:35:41.665Z,99.90
2018-07-21T21:38:12.110Z,99.90
2018-07-21T21:40:41.955Z,99.90
2018-07-21T21:43:11.812Z,99.90
2018-07-21T21:45:41.653Z,99.90
2018-07-21T21:48:12.075Z,99.90
2018-07-21T21:50:42.468Z,99.90
2018-07-21T21:53:13.095Z,99.90
2018-07-21T21:55:42.924Z,99.90
2018-07-21T21:58:13.454Z,99.90
2018-07-21T22:01:14.455Z,99.90
2018-07-21T22:03:45.456Z,99.90
2018-07-21T22:06:16.364Z,99.90
2018-07-21T22:08:46.214Z,99.90
2018-07-21T22:11:17.080Z,99.90
2018-07-21T22:16:16.229Z,99.90
2018-07-21T22:18:46.772Z,99.90
2018-07-21T22:21:16.535Z,99.90
2018-07-21T22:23:46.308Z,99.90
2018-07-21T22:26:16.219Z,99.90
2018-07-21T22:28:46.011Z,99.90
2018-07-21T22:31:16.453Z,99.90
2018-07-21T22:33:46.242Z,99.90
2018-07-21T22:36:16.054Z,99.90
2018-07-21T22:38:46.321Z,99.90
2018-07-21T22:41:17.208Z,99.90
2018-07-21T22:43:47.038Z,99.90
2018-07-21T22:46:16.929Z,99.90
2018-07-21T22:48:47.052Z,99.90
2018-07-21T22:53:47.244Z,99.90
2018-07-21T22:56:17.089Z,99.90
2018-07-21T22:58:46.903Z,99.90
2018-07-21T23:01:17.477Z,99.90
2018-07-21T23:03:47.203Z,99.90
2018-07-21T23:06:17.667Z,99.90
2018-07-21T23:08:48.123Z,99.90
2018-07-21T23:11:17.930Z,99.90
2018-07-21T23:13:47.748Z,99.90
2018-07-21T23:16:18.413Z,99.90
2018-07-21T23:18:48.994Z,99.90
2018-07-21T23:21:19.580Z,99.90
2018-07-21T23:23:49.448Z,99.90
2018-07-21T23:26:19.341Z,99.90
2018-07-21T23:28:50.176Z,99.90
2018-07-21T23:31:20.697Z,99.90
2018-07-21T23:33:50.503Z,99.90
2018-07-21T23:36:20.310Z,99.90
2018-07-21T23:38:50.178Z,99.90
2018-07-21T23:41:20.035Z,99.90
2018-07-21T23:43:49.976Z,99.90
2018-07-21T23:46:19.791Z,99.90
2018-07-21T23:48:50.234Z,99.90
2018-07-21T23:51:20.009Z,99.90
2018-07-21T23:53:50.644Z,99.90
2018-07-21T23:56:21.801Z,99.90
2018-07-21T23:58:51.596Z,99.90
